createdAt,value
2019-04-10T00:00:06.464Z,5.83
2019-04-10T00:01:08.894Z,5.77
2019-04-10T00:02:05.708Z,5.80
2019-04-10T00:03:06.179Z,5.85
2019-04-10T00:04:05.694Z,5.77
2019-04-10T00:05:05.588Z,5.73
2019-04-10T00:06:06.664Z,5.77
2019-04-10T00:07:12.749Z,5.65
2019-04-10T00:08:06.536Z,5.69
2019-04-10T00:09:06.403Z,5.67
2019-04-10T00:10:05.633Z,5.63
2019-04-10T00:11:05.533Z,5.60
2019-04-10T00:12:05.533Z,5.62
2019-04-10T00:13:06.566Z,5.52
2019-04-10T00:14:05.469Z,5.58
2019-04-10T00:15:05.566Z,5.52
2019-04-10T00:16:05.656Z,5.44
2019-04-10T00:17:05.511Z,5.47
2019-04-10T00:18:05.463Z,5.52
2019-04-10T00:19:06.479Z,5.45
2019-04-10T00:20:05.409Z,5.45
2019-04-10T00:21:05.505Z,5.42
2019-04-10T00:22:06.298Z,5.41
2019-04-10T00:23:05.440Z,5.40
2019-04-10T00:24:05.984Z,5.42
2019-04-10T00:25:05.423Z,5.41
2019-04-10T00:26:05.541Z,5.41
2019-04-10T00:27:06.118Z,5.40
2019-04-10T00:28:05.385Z,5.30
2019-04-10T00:29:05.763Z,5.29
2019-04-10T00:30:05.296Z,5.29
2019-04-10T00:31:05.390Z,5.33
2019-04-10T00:32:05.718Z,5.24
2019-04-10T00:33:05.421Z,5.17
2019-04-10T00:34:05.416Z,5.20
2019-04-10T00:35:06.385Z,5.15
2019-04-10T00:36:05.231Z,5.17
2019-04-10T00:37:05.847Z,5.19
2019-04-10T00:38:05.238Z,5.11
2019-04-10T00:39:06.341Z,5.14
2019-04-10T00:40:05.192Z,5.11
2019-04-10T00:41:06.019Z,5.06
2019-04-10T00:42:05.161Z,5.06
2019-04-10T00:43:05.273Z,5.05
2019-04-10T00:44:05.770Z,5.02
2019-04-10T00:45:05.160Z,5.04
2019-04-10T00:46:06.087Z,4.97
2019-04-10T00:47:05.177Z,4.96
2019-04-10T00:48:05.772Z,4.93
2019-04-10T00:49:05.227Z,4.87
2019-04-10T00:50:05.078Z,4.94
2019-04-10T00:51:05.102Z,4.84
2019-04-10T00:52:05.989Z,4.84
2019-04-10T00:53:05.144Z,4.87
2019-04-10T00:54:05.669Z,4.84
2019-04-10T00:55:05.735Z,4.83
2019-04-10T00:56:05.120Z,4.77
2019-04-10T00:57:05.249Z,4.71
2019-04-10T00:58:05.821Z,4.80
2019-04-10T00:59:05.997Z,4.68
2019-04-10T01:00:04.969Z,4.67
2019-04-10T01:01:05.628Z,4.71
2019-04-10T01:02:04.951Z,4.68
2019-04-10T01:03:05.243Z,4.62
2019-04-10T01:04:04.948Z,4.71
2019-04-10T01:05:05.049Z,4.62
2019-04-10T01:06:05.902Z,4.64
2019-04-10T01:07:05.011Z,4.62
2019-04-10T01:08:04.877Z,4.54
2019-04-10T01:09:04.944Z,4.51
2019-04-10T01:10:05.970Z,4.49
2019-04-10T01:11:04.930Z,4.50
2019-04-10T01:12:05.763Z,4.51
2019-04-10T01:13:04.986Z,4.44
2019-04-10T01:14:05.424Z,4.53
2019-04-10T01:15:04.881Z,4.47
2019-04-10T01:16:05.035Z,4.47
2019-04-10T01:17:04.866Z,4.44
2019-04-10T01:18:04.777Z,4.43
2019-04-10T01:19:05.759Z,4.46
2019-04-10T01:20:05.087Z,4.44
2019-04-10T01:21:04.798Z,4.36
2019-04-10T01:22:04.722Z,4.32
2019-04-10T01:23:05.782Z,4.36
2019-04-10T01:24:05.719Z,4.47
2019-04-10T01:25:04.719Z,4.47
2019-04-10T01:26:05.219Z,4.47
2019-04-10T01:27:04.731Z,4.35
2019-04-10T01:28:04.739Z,4.38
2019-04-10T01:29:05.148Z,4.34
2019-04-10T01:30:04.662Z,4.25
2019-04-10T01:31:04.660Z,4.31
2019-04-10T01:32:05.629Z,4.24
2019-04-10T01:33:04.680Z,4.24
2019-04-10T01:34:05.357Z,4.28
2019-04-10T01:35:05.706Z,4.29
2019-04-10T01:36:04.826Z,4.28
2019-04-10T01:37:04.851Z,4.18
2019-04-10T01:38:06.126Z,4.18
2019-04-10T01:39:04.617Z,4.21
2019-04-10T01:40:04.582Z,4.20
2019-04-10T01:41:05.678Z,4.20
2019-04-10T01:42:04.511Z,4.21
2019-04-10T01:43:09.881Z,4.17
2019-04-10T01:44:05.702Z,4.13
2019-04-10T01:45:04.939Z,4.17
2019-04-10T01:46:04.449Z,4.17
2019-04-10T01:47:04.723Z,4.16
2019-04-10T01:48:04.466Z,4.16
2019-04-10T01:49:05.159Z,4.07
2019-04-10T01:50:04.600Z,4.02
2019-04-10T01:51:04.496Z,4.07
2019-04-10T01:52:04.825Z,3.99
2019-04-10T01:53:04.407Z,4.04
2019-04-10T01:54:04.369Z,4.02
2019-04-10T01:55:17.034Z,3.98
2019-04-10T01:56:05.455Z,3.93
2019-04-10T01:57:04.343Z,3.95
2019-04-10T01:58:05.118Z,3.86
2019-04-10T01:59:04.311Z,3.89
2019-04-10T02:00:04.676Z,3.92
2019-04-10T02:01:04.291Z,3.90
2019-04-10T02:02:05.163Z,3.82
2019-04-10T02:03:04.287Z,3.80
2019-04-10T02:04:04.641Z,3.86
2019-04-10T02:05:04.278Z,3.80
2019-04-10T02:06:05.159Z,3.77
2019-04-10T02:07:04.217Z,3.75
2019-04-10T02:08:09.093Z,3.84
2019-04-10T02:09:05.211Z,3.80
2019-04-10T02:10:04.316Z,3.78
2019-04-10T02:11:04.846Z,3.74
2019-04-10T02:12:04.229Z,3.71
2019-04-10T02:13:05.301Z,3.74
2019-04-10T02:14:04.248Z,3.62
2019-04-10T02:15:04.845Z,3.78
2019-04-10T02:16:04.185Z,3.68
2019-04-10T02:17:04.304Z,3.68
2019-04-10T02:18:04.171Z,3.64
2019-04-10T02:19:04.093Z,3.64
2019-04-10T02:20:04.937Z,3.67
2019-04-10T02:21:04.313Z,3.67
2019-04-10T02:22:04.420Z,3.59
2019-04-10T02:23:04.045Z,3.57
2019-04-10T02:24:05.021Z,3.59
2019-04-10T02:25:04.023Z,3.59
2019-04-10T02:26:05.110Z,3.56
2019-04-10T02:27:04.007Z,3.46
2019-04-10T02:28:04.898Z,3.50
2019-04-10T02:29:03.975Z,3.53
2019-04-10T02:30:05.196Z,3.41
2019-04-10T02:31:04.818Z,3.45
2019-04-10T02:32:04.329Z,3.52
2019-04-10T02:33:04.334Z,3.41
2019-04-10T02:34:04.844Z,3.41
2019-04-10T02:35:05.802Z,3.44
2019-04-10T02:36:05.485Z,3.41
2019-04-10T02:37:03.888Z,3.45
2019-04-10T02:38:24.543Z,3.44
2019-04-10T02:39:15.217Z,3.45
2019-04-10T02:40:05.687Z,3.42
2019-04-10T02:41:05.711Z,3.35
2019-04-10T02:42:03.874Z,3.39
2019-04-10T02:43:05.719Z,3.33
2019-04-10T02:44:04.849Z,3.26
2019-04-10T02:45:03.839Z,3.30
2019-04-10T02:46:04.149Z,3.26
2019-04-10T02:47:04.409Z,3.23
2019-04-10T02:48:04.488Z,3.31
2019-04-10T02:49:04.311Z,3.26
2019-04-10T02:50:06.075Z,3.33
2019-04-10T02:51:05.468Z,3.33
2019-04-10T02:52:04.074Z,3.19
2019-04-10T02:53:05.352Z,3.19
2019-04-10T02:54:05.017Z,3.19
2019-04-10T02:55:03.986Z,3.19
2019-04-10T02:56:05.258Z,3.15
2019-04-10T02:57:05.342Z,3.17
2019-04-10T02:58:03.654Z,3.16
2019-04-10T02:59:05.007Z,3.17
2019-04-10T03:00:05.209Z,3.08
2019-04-10T03:01:03.681Z,3.07
2019-04-10T03:02:04.274Z,3.13
2019-04-10T03:03:03.818Z,3.08
2019-04-10T03:04:03.581Z,3.05
2019-04-10T03:05:04.615Z,3.05
2019-04-10T03:06:04.949Z,3.05
2019-04-10T03:07:04.271Z,2.99
2019-04-10T03:08:04.878Z,3.02
2019-04-10T03:09:24.828Z,2.89
2019-04-10T03:10:15.202Z,2.99
2019-04-10T03:11:08.376Z,2.95
2019-04-10T03:12:06.118Z,2.97
2019-04-10T03:13:04.711Z,2.97
2019-04-10T03:14:04.550Z,2.97
2019-04-10T03:15:05.275Z,2.97
2019-04-10T03:16:03.549Z,2.86
2019-04-10T03:17:03.849Z,2.89
2019-04-10T03:18:04.290Z,2.89
2019-04-10T03:19:03.423Z,2.90
2019-04-10T03:20:03.480Z,2.84
2019-04-10T03:21:03.411Z,2.81
2019-04-10T03:22:03.902Z,2.80
2019-04-10T03:23:03.426Z,2.77
2019-04-10T03:24:04.216Z,2.77
2019-04-10T03:25:04.428Z,2.74
2019-04-10T03:26:03.573Z,2.74
2019-04-10T03:27:03.779Z,2.76
2019-04-10T03:28:03.423Z,2.77
2019-04-10T03:29:03.430Z,2.71
2019-04-10T03:30:05.035Z,2.69
2019-04-10T03:31:05.296Z,2.66
2019-04-10T03:32:04.583Z,2.68
2019-04-10T03:33:06.704Z,2.69
2019-04-10T03:34:08.148Z,2.73
2019-04-10T03:35:03.254Z,2.73
2019-04-10T03:36:03.319Z,2.69
2019-04-10T03:37:04.278Z,2.65
2019-04-10T03:38:03.321Z,2.71
2019-04-10T03:39:06.027Z,2.62
2019-04-10T03:40:03.321Z,2.58
2019-04-10T03:41:04.004Z,2.53
2019-04-10T03:42:04.297Z,2.56
2019-04-10T03:43:03.536Z,2.55
2019-04-10T03:44:03.233Z,2.61
2019-04-10T03:45:03.319Z,2.61
2019-04-10T03:46:03.310Z,2.56
2019-04-10T03:47:03.115Z,2.53
2019-04-10T03:48:04.804Z,2.47
2019-04-10T03:49:03.225Z,2.48
2019-04-10T03:50:03.181Z,2.38
2019-04-10T03:51:03.956Z,2.53
2019-04-10T03:52:03.207Z,2.44
2019-04-10T03:53:03.087Z,2.40
2019-04-10T03:54:03.118Z,2.38
2019-04-10T03:55:03.023Z,2.32
2019-04-10T03:56:03.261Z,2.41
2019-04-10T03:57:02.999Z,2.41
2019-04-10T03:58:03.057Z,2.30
2019-04-10T03:59:04.090Z,2.41
2019-04-10T04:00:03.682Z,2.30
2019-04-10T04:01:02.961Z,2.30
2019-04-10T04:02:03.197Z,2.32
2019-04-10T04:03:03.008Z,2.26
2019-04-10T04:04:02.961Z,2.26
2019-04-10T04:05:02.917Z,2.23
2019-04-10T04:06:03.631Z,2.23
2019-04-10T04:07:02.895Z,2.25
2019-04-10T04:08:04.020Z,2.23
2019-04-10T04:09:08.976Z,2.12
2019-04-10T04:10:04.380Z,2.08
2019-04-10T04:11:02.912Z,2.11
2019-04-10T04:12:02.843Z,2.12
2019-04-10T04:13:05.712Z,2.11
2019-04-10T04:14:02.845Z,2.11
2019-04-10T04:15:03.669Z,2.02
2019-04-10T04:16:02.803Z,2.09
2019-04-10T04:17:03.964Z,2.01
2019-04-10T04:18:02.779Z,2.07
2019-04-10T04:19:03.922Z,2.04
2019-04-10T04:20:02.763Z,2.07
2019-04-10T04:21:03.489Z,2.05
2019-04-10T04:22:02.733Z,2.04
2019-04-10T04:23:03.492Z,2.12
2019-04-10T04:24:03.612Z,2.00
2019-04-10T04:25:02.796Z,2.05
2019-04-10T04:26:03.063Z,2.02
2019-04-10T04:27:02.840Z,1.95
2019-04-10T04:28:02.680Z,2.05
2019-04-10T04:29:02.765Z,2.04
2019-04-10T04:30:02.685Z,2.05
2019-04-10T04:31:03.127Z,2.01
2019-04-10T04:32:02.627Z,1.92
2019-04-10T04:33:02.657Z,1.89
2019-04-10T04:34:02.637Z,1.98
2019-04-10T04:35:02.672Z,1.86
2019-04-10T04:36:02.581Z,1.98
2019-04-10T04:37:02.687Z,1.92
2019-04-10T04:38:02.627Z,1.95
2019-04-10T04:39:13.546Z,1.89
2019-04-10T04:40:03.562Z,1.86
2019-04-10T04:41:02.603Z,1.89
2019-04-10T04:42:03.052Z,1.82
2019-04-10T04:43:03.636Z,1.95
2019-04-10T04:44:02.504Z,1.83
2019-04-10T04:45:03.090Z,1.85
2019-04-10T04:46:03.310Z,1.74
2019-04-10T04:47:03.389Z,1.95
2019-04-10T04:48:02.453Z,1.95
2019-04-10T04:49:02.553Z,1.95
2019-04-10T04:50:03.606Z,1.83
2019-04-10T04:51:03.271Z,1.83
2019-04-10T04:52:02.619Z,1.90
2019-04-10T04:53:02.482Z,1.77
2019-04-10T04:54:02.389Z,1.83
2019-04-10T04:55:02.498Z,1.92
2019-04-10T04:56:02.456Z,1.95
2019-04-10T04:57:02.452Z,1.88
2019-04-10T04:58:02.341Z,1.85
2019-04-10T04:59:02.424Z,1.92
2019-04-10T05:00:03.232Z,1.83
2019-04-10T05:01:02.454Z,1.82
2019-04-10T05:02:03.381Z,1.82
2019-04-10T05:03:02.348Z,1.81
2019-04-10T05:04:02.487Z,1.82
2019-04-10T05:05:02.546Z,1.81
2019-04-10T05:06:02.361Z,1.81
2019-04-10T05:07:02.381Z,1.82
2019-04-10T05:08:04.107Z,1.82
2019-04-10T05:09:02.810Z,1.85
2019-04-10T05:10:02.294Z,1.82
2019-04-10T05:11:02.337Z,1.82
2019-04-10T05:12:02.928Z,1.81
2019-04-10T05:13:02.212Z,1.77
2019-04-10T05:14:02.745Z,1.81
2019-04-10T05:15:02.644Z,1.74
2019-04-10T05:16:02.659Z,1.85
2019-04-10T05:18:04.065Z,1.86
2019-04-10T05:19:02.147Z,1.85
2019-04-10T05:20:02.956Z,1.77
2019-04-10T05:21:03.054Z,1.83
2019-04-10T05:22:02.092Z,1.86
2019-04-10T05:23:02.293Z,1.83
2019-04-10T05:24:03.169Z,1.82
2019-04-10T05:25:03.054Z,1.85
2019-04-10T05:26:02.513Z,1.88
2019-04-10T05:27:02.102Z,1.82
2019-04-10T05:28:02.032Z,2.00
2019-04-10T05:30:04.068Z,1.95
2019-04-10T05:32:03.102Z,2.01
2019-04-10T05:33:02.068Z,2.02
2019-04-10T05:34:03.009Z,2.01
2019-04-10T05:35:05.120Z,1.98
2019-04-10T05:36:01.932Z,2.04
2019-04-10T05:37:03.048Z,2.04
2019-04-10T05:38:02.541Z,2.02
2019-04-10T05:39:02.209Z,2.12
2019-04-10T05:40:01.891Z,2.05
2019-04-10T05:41:01.994Z,2.05
2019-04-10T05:42:02.690Z,2.08
2019-04-10T05:43:01.913Z,2.08
2019-04-10T05:44:02.805Z,2.08
2019-04-10T05:45:03.041Z,2.09
2019-04-10T05:46:02.825Z,2.14
2019-04-10T05:47:01.984Z,2.14
2019-04-10T05:48:01.812Z,2.09
2019-04-10T05:49:01.855Z,2.20
2019-04-10T05:50:02.075Z,2.20
2019-04-10T05:51:04.818Z,2.15
2019-04-10T05:52:02.795Z,2.19
2019-04-10T05:53:02.322Z,2.25
2019-04-10T05:54:02.277Z,2.23
2019-04-10T05:55:02.324Z,2.23
2019-04-10T05:56:01.744Z,2.22
2019-04-10T05:57:01.802Z,2.22
2019-04-10T05:58:01.794Z,2.37
2019-04-10T05:59:01.714Z,2.40
2019-04-10T06:00:02.727Z,2.36
2019-04-10T06:01:01.726Z,2.36
2019-04-10T06:02:01.696Z,2.41
2019-04-10T06:03:01.744Z,2.48
2019-04-10T06:04:01.638Z,2.58
2019-04-10T06:05:02.334Z,2.61
2019-04-10T06:06:01.605Z,2.55
2019-04-10T06:07:01.668Z,2.65
2019-04-10T06:08:01.626Z,2.59
2019-04-10T06:09:02.547Z,2.61
2019-04-10T06:10:05.138Z,2.66
2019-04-10T06:11:02.622Z,2.66
2019-04-10T06:12:03.471Z,2.74
2019-04-10T06:13:02.645Z,2.80
2019-04-10T06:14:01.523Z,2.77
2019-04-10T06:15:02.456Z,2.79
2019-04-10T06:16:01.633Z,2.77
2019-04-10T06:17:04.089Z,2.84
2019-04-10T06:18:01.517Z,2.74
2019-04-10T06:19:01.874Z,2.87
2019-04-10T06:20:01.697Z,2.87
2019-04-10T06:21:02.886Z,2.99
2019-04-10T06:22:01.443Z,2.95
2019-04-10T06:23:01.501Z,2.98
2019-04-10T06:24:01.416Z,3.07
2019-04-10T06:25:03.660Z,3.01
2019-04-10T06:26:03.363Z,3.05
2019-04-10T06:27:01.899Z,3.04
2019-04-10T06:28:01.402Z,3.19
2019-04-10T06:29:02.377Z,3.22
2019-04-10T06:30:01.875Z,3.26
2019-04-10T06:31:01.425Z,3.19
2019-04-10T06:32:01.348Z,3.19
2019-04-10T06:33:02.202Z,3.19
2019-04-10T06:34:01.431Z,3.22
2019-04-10T06:35:01.942Z,3.30
2019-04-10T06:36:01.283Z,3.25
2019-04-10T06:37:01.921Z,3.31
2019-04-10T06:38:02.315Z,3.28
2019-04-10T06:39:02.559Z,3.41
2019-04-10T06:40:10.713Z,3.44
2019-04-10T06:41:02.270Z,3.46
2019-04-10T06:42:02.539Z,3.44
2019-04-10T06:43:01.252Z,3.44
2019-04-10T06:44:01.516Z,3.44
2019-04-10T06:45:01.212Z,3.53
2019-04-10T06:46:01.217Z,3.49
2019-04-10T06:47:02.151Z,3.56
2019-04-10T06:48:01.264Z,3.49
2019-04-10T06:49:01.185Z,3.59
2019-04-10T06:50:02.452Z,3.62
2019-04-10T06:51:02.071Z,3.67
2019-04-10T06:52:01.901Z,3.81
2019-04-10T06:53:01.172Z,3.78
2019-04-10T06:54:06.941Z,3.80
2019-04-10T06:55:03.015Z,3.89
2019-04-10T06:56:01.187Z,3.88
2019-04-10T06:57:01.057Z,3.86
2019-04-10T06:58:01.117Z,3.88
2019-04-10T06:59:01.085Z,3.96
2019-04-10T07:00:02.272Z,3.98
2019-04-10T07:01:01.813Z,4.11
2019-04-10T07:02:14.145Z,4.16
2019-04-10T07:03:02.985Z,4.21
2019-04-10T07:04:05.135Z,4.13
2019-04-10T07:05:05.819Z,4.16
2019-04-10T07:06:09.734Z,4.24
2019-04-10T07:07:08.937Z,4.28
2019-04-10T07:08:10.921Z,4.29
2019-04-10T07:09:01.988Z,4.26
2019-04-10T07:10:02.240Z,4.29
2019-04-10T07:11:05.941Z,4.29
2019-04-10T07:12:03.414Z,4.42
2019-04-10T07:13:04.262Z,4.44
2019-04-10T07:14:01.899Z,4.46
2019-04-10T07:15:02.189Z,4.51
2019-04-10T07:16:02.067Z,4.53
2019-04-10T07:17:05.400Z,4.65
2019-04-10T07:18:02.972Z,4.71
2019-04-10T07:19:04.231Z,4.75
2019-04-10T07:20:02.027Z,4.83
2019-04-10T07:21:01.974Z,4.84
2019-04-10T07:22:01.932Z,4.94
2019-04-10T07:23:00.861Z,4.96
2019-04-10T07:24:04.881Z,5.05
2019-04-10T07:25:02.872Z,5.05
2019-04-10T07:26:01.746Z,5.02
2019-04-10T07:27:03.389Z,5.12
2019-04-10T07:28:01.444Z,5.15
2019-04-10T07:29:00.941Z,5.17
2019-04-10T07:30:01.632Z,5.19
2019-04-10T07:31:04.721Z,5.32
2019-04-10T07:32:04.793Z,5.27
2019-04-10T07:33:01.759Z,5.38
2019-04-10T07:34:01.414Z,5.38
2019-04-10T07:35:01.897Z,5.41
2019-04-10T07:36:04.187Z,5.52
2019-04-10T07:37:02.276Z,5.48
2019-04-10T07:38:01.377Z,5.47
2019-04-10T07:39:01.497Z,5.58
2019-04-10T07:40:03.321Z,5.51
2019-04-10T07:41:00.886Z,5.63
2019-04-10T07:42:00.595Z,5.60
2019-04-10T07:44:01.804Z,5.67
2019-04-10T07:46:01.564Z,5.78
2019-04-10T07:47:02.597Z,5.87
2019-04-10T07:48:00.499Z,5.87
2019-04-10T07:50:02.176Z,5.88
2019-04-10T07:51:02.754Z,5.95
2019-04-10T07:52:01.924Z,6.01
2019-04-10T07:54:01.900Z,6.02
2019-04-10T07:56:06.892Z,6.17
2019-04-10T07:57:02.068Z,6.08
2019-04-10T07:59:02.608Z,6.16
2019-04-10T08:01:01.471Z,6.32
2019-04-10T08:02:02.512Z,6.46
2019-04-10T08:03:00.331Z,6.36
2019-04-10T08:05:02.398Z,6.51
2019-04-10T08:06:02.604Z,6.43
2019-04-10T08:07:00.963Z,6.54
2019-04-10T08:09:01.345Z,6.73
2019-04-10T08:11:01.596Z,6.73
2019-04-10T08:12:02.958Z,6.78
2019-04-10T08:13:00.358Z,6.87
2019-04-10T08:14:03.476Z,6.91
2019-04-10T08:15:00.703Z,6.99
2019-04-10T08:16:02.894Z,7.04
2019-04-10T08:17:00.174Z,7.12
2019-04-10T08:18:02.721Z,7.09
2019-04-10T08:19:00.154Z,7.09
2019-04-10T08:21:01.200Z,7.18
2019-04-10T08:22:03.621Z,7.34
2019-04-10T08:23:00.114Z,7.41
2019-04-10T08:24:02.626Z,7.45
2019-04-10T08:25:00.216Z,7.44
2019-04-10T08:26:03.578Z,7.39
2019-04-10T08:27:01.109Z,7.45
2019-04-10T08:29:01.623Z,7.52
2019-04-10T08:30:03.335Z,7.45
2019-04-10T08:31:01.006Z,7.60
2019-04-10T08:32:02.614Z,7.66
2019-04-10T08:33:01.604Z,7.74
2019-04-10T08:34:03.307Z,7.86
2019-04-10T08:35:00.350Z,7.86
2019-04-10T08:36:03.247Z,7.76
2019-04-10T08:36:59.958Z,7.69
2019-04-10T08:38:03.367Z,7.88
2019-04-10T08:38:59.963Z,8.00
2019-04-10T08:40:03.131Z,7.99
2019-04-10T08:41:00.745Z,8.06
2019-04-10T08:42:02.800Z,8.06
2019-04-10T08:43:00.008Z,8.00
2019-04-10T08:44:02.674Z,8.07
2019-04-10T08:45:00.772Z,8.13
2019-04-10T08:47:00.931Z,8.29
2019-04-10T08:48:03.620Z,8.34
2019-04-10T08:49:00.167Z,8.37
2019-04-10T08:51:01.066Z,8.61
2019-04-10T08:53:01.975Z,8.49
2019-04-10T08:55:01.697Z,8.60
2019-04-10T08:57:01.072Z,8.73
2019-04-10T08:58:03.306Z,8.78
2019-04-10T08:58:59.751Z,8.79
2019-04-10T09:00:04.519Z,8.78
2019-04-10T09:01:00.681Z,8.94
2019-04-10T09:02:04.001Z,9.01
2019-04-10T09:03:00.295Z,9.03
2019-04-10T09:04:03.650Z,9.03
2019-04-10T09:04:59.640Z,9.20
2019-04-10T09:06:03.526Z,9.17
2019-04-10T09:07:01.450Z,9.13
2019-04-10T09:08:04.527Z,9.20
2019-04-10T09:08:59.630Z,9.26
2019-04-10T09:11:00.861Z,9.04
2019-04-10T09:13:00.616Z,9.15
2019-04-10T09:14:01.675Z,9.30
2019-04-10T09:16:00.583Z,9.22
2019-04-10T09:17:00.752Z,9.27
2019-04-10T09:17:59.822Z,9.31
2019-04-10T09:18:59.549Z,9.32
2019-04-10T09:20:00.596Z,9.40
2019-04-10T09:20:59.542Z,9.52
2019-04-10T09:21:59.523Z,9.52
2019-04-10T09:23:17.874Z,9.59
2019-04-10T09:24:04.710Z,9.65
2019-04-10T09:25:00.586Z,9.75
2019-04-10T09:25:59.687Z,9.96
2019-04-10T09:27:00.481Z,9.93
2019-04-10T09:28:00.205Z,9.85
2019-04-10T09:28:59.413Z,9.59
2019-04-10T09:30:00.372Z,9.65
2019-04-10T09:30:59.531Z,9.75
2019-04-10T09:31:59.415Z,9.98
2019-04-10T09:33:00.724Z,10.09
2019-04-10T09:33:59.452Z,10.18
2019-04-10T09:35:00.308Z,10.09
2019-04-10T09:35:59.331Z,10.20
2019-04-10T09:36:59.925Z,10.36
2019-04-10T09:37:59.354Z,10.47
2019-04-10T09:38:59.276Z,10.51
2019-04-10T09:40:00.124Z,10.55
2019-04-10T09:40:59.420Z,10.47
2019-04-10T09:41:59.279Z,10.47
2019-04-10T09:42:59.769Z,10.51
2019-04-10T09:44:00.232Z,10.44
2019-04-10T09:45:00.345Z,10.44
2019-04-10T09:46:00.009Z,10.55
2019-04-10T09:47:00.002Z,10.52
2019-04-10T09:47:59.995Z,10.62
2019-04-10T09:48:59.168Z,10.87
2019-04-10T09:49:59.766Z,11.03
2019-04-10T09:51:00.209Z,10.98
2019-04-10T09:51:59.246Z,11.09
2019-04-10T09:52:59.987Z,11.05
2019-04-10T09:53:59.459Z,10.88
2019-04-10T09:54:59.587Z,10.87
2019-04-10T09:55:59.173Z,10.93
2019-04-10T09:56:59.162Z,10.99
2019-04-10T09:58:00.162Z,10.94
2019-04-10T09:58:59.044Z,10.84
2019-04-10T09:59:59.130Z,10.76
2019-04-10T10:00:59.026Z,10.80
2019-04-10T10:01:59.105Z,10.88
2019-04-10T10:02:59.340Z,11.02
2019-04-10T10:03:59.241Z,11.16
2019-04-10T10:04:59.020Z,11.26
2019-04-10T10:06:00.151Z,11.17
2019-04-10T10:06:59.830Z,10.78
2019-04-10T10:08:00.080Z,10.60
2019-04-10T10:08:58.934Z,10.72
2019-04-10T10:10:00.762Z,10.78
2019-04-10T10:10:59.738Z,10.88
2019-04-10T10:11:59.018Z,11.08
2019-04-10T10:12:59.144Z,11.26
2019-04-10T10:13:58.984Z,11.42
2019-04-10T10:14:58.913Z,11.46
2019-04-10T10:15:58.897Z,11.59
2019-04-10T10:17:00.072Z,11.57
2019-04-10T10:18:59.893Z,11.26
2019-04-10T10:19:59.550Z,11.17
2019-04-10T10:20:59.763Z,11.21
2019-04-10T10:22:01.693Z,11.36
2019-04-10T10:22:58.787Z,11.35
2019-04-10T10:23:58.857Z,11.42
2019-04-10T10:24:59.382Z,11.41
2019-04-10T10:25:59.621Z,11.54
2019-04-10T10:26:59.708Z,11.75
2019-04-10T10:27:58.781Z,11.97
2019-04-10T10:28:58.710Z,12.07
2019-04-10T10:29:59.862Z,12.04
2019-04-10T10:30:59.855Z,12.01
2019-04-10T10:31:58.819Z,12.12
2019-04-10T10:32:59.389Z,12.26
2019-04-10T10:33:58.721Z,12.08
2019-04-10T10:34:58.894Z,12.07
2019-04-10T10:35:59.628Z,12.05
2019-04-10T10:36:58.642Z,11.96
2019-04-10T10:37:58.962Z,11.87
2019-04-10T10:39:06.875Z,11.88
2019-04-10T10:39:59.590Z,11.87
2019-04-10T10:40:59.138Z,11.87
2019-04-10T10:41:58.660Z,11.87
2019-04-10T10:42:58.679Z,12.08
2019-04-10T10:43:58.552Z,12.15
2019-04-10T10:44:58.596Z,12.37
2019-04-10T10:45:58.906Z,12.46
2019-04-10T10:46:58.633Z,12.36
2019-04-10T10:47:58.499Z,12.03
2019-04-10T10:48:58.618Z,12.16
2019-04-10T10:49:59.067Z,12.08
2019-04-10T10:50:58.530Z,12.04
2019-04-10T10:51:59.394Z,11.87
2019-04-10T10:52:59.681Z,11.97
2019-04-10T10:54:01.011Z,11.97
2019-04-10T10:54:59.073Z,11.70
2019-04-10T10:55:58.452Z,11.67
2019-04-10T10:56:58.587Z,11.74
2019-04-10T10:57:59.409Z,11.87
2019-04-10T10:58:59.003Z,11.96
2019-04-10T10:59:58.376Z,11.98
2019-04-10T11:00:58.400Z,11.84
2019-04-10T11:01:58.377Z,12.12
2019-04-10T11:02:58.409Z,12.13
2019-04-10T11:03:58.412Z,12.21
2019-04-10T11:05:02.197Z,12.40
2019-04-10T11:06:00.411Z,12.56
2019-04-10T11:07:00.886Z,12.74
2019-04-10T11:07:59.755Z,12.88
2019-04-10T11:08:58.353Z,12.96
2019-04-10T11:09:58.615Z,12.91
2019-04-10T11:10:59.420Z,12.99
2019-04-10T11:11:58.261Z,13.07
2019-04-10T11:12:58.535Z,13.04
2019-04-10T11:13:58.941Z,13.24
2019-04-10T11:14:59.406Z,13.28
2019-04-10T11:16:01.243Z,13.32
2019-04-10T11:16:59.253Z,13.48
2019-04-10T11:17:58.168Z,13.61
2019-04-10T11:18:58.976Z,13.69
2019-04-10T11:19:59.416Z,13.72
2019-04-10T11:21:04.120Z,13.76
2019-04-10T11:21:59.151Z,13.25
2019-04-10T11:22:58.209Z,13.13
2019-04-10T11:23:58.423Z,13.22
2019-04-10T11:24:58.152Z,13.29
2019-04-10T11:25:58.082Z,12.74
2019-04-10T11:26:58.181Z,12.38
2019-04-10T11:27:58.459Z,11.98
2019-04-10T11:29:59.887Z,12.04
2019-04-10T11:30:58.637Z,12.26
2019-04-10T11:31:58.120Z,12.33
2019-04-10T11:32:58.300Z,12.30
2019-04-10T11:33:58.241Z,12.51
2019-04-10T11:34:59.011Z,12.62
2019-04-10T11:35:57.970Z,12.91
2019-04-10T11:37:16.896Z,12.96
2019-04-10T11:38:00.826Z,12.94
2019-04-10T11:39:09.696Z,12.96
2019-04-10T11:40:01.041Z,12.87
2019-04-10T11:41:58.956Z,12.92
2019-04-10T11:42:59.994Z,12.81
2019-04-10T11:43:57.949Z,12.76
2019-04-10T11:44:59.207Z,12.99
2019-04-10T11:46:01.764Z,13.25
2019-04-10T11:46:58.814Z,13.35
2019-04-10T11:47:58.952Z,13.62
2019-04-10T11:48:57.908Z,13.61
2019-04-10T11:49:59.422Z,13.51
2019-04-10T11:50:59.681Z,13.55
2019-04-10T11:51:59.957Z,13.32
2019-04-10T11:53:00.387Z,13.10
2019-04-10T11:53:59.102Z,13.01
2019-04-10T11:55:06.814Z,13.09
2019-04-10T11:56:02.514Z,13.04
2019-04-10T11:57:02.320Z,13.04
2019-04-10T11:57:59.618Z,13.12
2019-04-10T11:58:59.277Z,13.31
2019-04-10T12:00:00.783Z,13.22
2019-04-10T12:00:59.592Z,13.25
2019-04-10T12:02:00.718Z,13.41
2019-04-10T12:04:00.304Z,13.86
2019-04-10T12:05:03.345Z,14.06
2019-04-10T12:05:59.825Z,14.16
2019-04-10T12:07:01.186Z,13.94
2019-04-10T12:09:19.380Z,13.38
2019-04-10T12:11:57.570Z,12.80
2019-04-10T12:12:57.667Z,12.85
2019-04-10T12:13:58.830Z,12.88
2019-04-10T12:14:57.641Z,12.74
2019-04-10T12:15:57.532Z,12.73
2019-04-10T12:16:57.783Z,12.52
2019-04-10T12:17:58.196Z,12.76
2019-04-10T12:19:58.577Z,13.13
2019-04-10T12:20:57.690Z,12.79
2019-04-10T12:21:58.044Z,12.34
2019-04-10T12:22:58.537Z,12.38
2019-04-10T12:23:57.431Z,12.26
2019-04-10T12:24:58.484Z,12.37
2019-04-10T12:25:57.417Z,12.79
2019-04-10T12:26:58.349Z,12.99
2019-04-10T12:27:57.811Z,13.06
2019-04-10T12:28:58.249Z,13.09
2019-04-10T12:29:57.404Z,13.12
2019-04-10T12:30:57.542Z,13.36
2019-04-10T12:31:58.531Z,13.62
2019-04-10T12:32:57.415Z,13.48
2019-04-10T12:33:57.328Z,13.38
2019-04-10T12:34:58.226Z,13.21
2019-04-10T12:35:58.231Z,13.31
2019-04-10T12:36:58.665Z,13.39
2019-04-10T12:38:02.684Z,13.53
2019-04-10T12:38:58.291Z,13.59
2019-04-10T12:39:57.376Z,13.62
2019-04-10T12:40:57.327Z,13.48
2019-04-10T12:41:57.565Z,13.76
2019-04-10T12:42:57.224Z,13.98
2019-04-10T12:43:57.270Z,14.30
2019-04-10T12:44:57.783Z,14.45
2019-04-10T12:45:57.325Z,14.72
2019-04-10T12:46:57.430Z,14.72
2019-04-10T12:47:57.194Z,14.61
2019-04-10T12:48:57.160Z,14.60
2019-04-10T12:49:58.228Z,14.46
2019-04-10T12:50:57.186Z,14.39
2019-04-10T12:51:58.328Z,14.34
2019-04-10T12:52:57.119Z,14.45
2019-04-10T12:53:58.294Z,14.46
2019-04-10T12:54:57.092Z,14.52
2019-04-10T12:55:57.792Z,14.42
2019-04-10T12:56:57.081Z,14.30
2019-04-10T12:58:06.610Z,14.23
2019-04-10T12:58:59.247Z,14.29
2019-04-10T13:00:01.230Z,14.38
2019-04-10T13:00:58.399Z,14.48
2019-04-10T13:01:57.372Z,14.60
2019-04-10T13:02:57.006Z,14.61
2019-04-10T13:03:57.855Z,14.57
2019-04-10T13:04:57.013Z,14.44
2019-04-10T13:05:57.761Z,14.08
2019-04-10T13:06:57.045Z,13.83
2019-04-10T13:07:58.175Z,13.84
2019-04-10T13:09:05.714Z,13.73
2019-04-10T13:09:58.215Z,13.76
2019-04-10T13:10:58.083Z,13.21
2019-04-10T13:11:56.983Z,12.96
2019-04-10T13:12:57.667Z,12.81
2019-04-10T13:13:58.052Z,12.96
2019-04-10T13:14:57.122Z,12.98
2019-04-10T13:15:56.924Z,12.91
2019-04-10T13:16:56.877Z,13.07
2019-04-10T13:17:57.531Z,13.21
2019-04-10T13:18:56.904Z,13.38
2019-04-10T13:19:57.540Z,13.54
2019-04-10T13:21:57.950Z,13.63
2019-04-10T13:22:56.827Z,13.79
2019-04-10T13:23:57.270Z,13.71
2019-04-10T13:24:57.702Z,13.35
2019-04-10T13:26:01.816Z,13.09
2019-04-10T13:26:58.570Z,13.16
2019-04-10T13:27:56.750Z,13.48
2019-04-10T13:28:56.759Z,13.35
2019-04-10T13:29:56.710Z,13.46
2019-04-10T13:30:58.192Z,13.61
2019-04-10T13:31:56.725Z,13.51
2019-04-10T13:32:56.788Z,13.28
2019-04-10T13:33:57.169Z,13.35
2019-04-10T13:34:57.609Z,13.57
2019-04-10T13:35:57.625Z,13.84
2019-04-10T13:36:56.783Z,13.80
2019-04-10T13:37:56.921Z,13.84
2019-04-10T13:38:56.726Z,13.80
2019-04-10T13:39:57.264Z,13.59
2019-04-10T13:40:56.648Z,13.62
2019-04-10T13:41:56.760Z,13.38